Time;durP1;ratioP1;P1;durP2;ratioP2;P2;SDS_P1;SDS_P2;PMS_P1;PMS_P2;Temp;Humidity;BMP_temperature;BMP_pressure;BME280_temperature;BME280_humidity;BME280_pressure;Samples;Min_cycle;Max_cycle;Signal;HPM_P1;HPM_P2
2022/12/01 00:01:30;;;;;;;5.67;5.17;;;20.00;67.70;;;;;;5007810;28;20473;-68
2022/12/01 00:03:58;;;;;;;5.70;5.10;;;20.00;67.70;;;;;;5006815;28;20455;-69
2022/12/01 00:06:28;;;;;;;5.17;4.67;;;20.00;67.70;;;;;;4989719;28;20502;-69
2022/12/01 00:11:47;;;;;;;5.50;5.00;;;20.00;67.70;;;;;;4992409;28;20505;-69
2022/12/01 00:14:16;;;;;;;4.80;4.37;;;20.00;67.70;;;;;;5008990;28;20489;-69
2022/12/01 00:16:44;;;;;;;5.03;4.63;;;20.00;67.70;;;;;;5009337;28;20483;-69
2022/12/01 00:19:12;;;;;;;5.80;5.23;;;20.00;67.60;;;;;;5006965;28;20459;-69
2022/12/01 00:21:42;;;;;;;6.70;4.50;;;20.00;67.60;;;;;;5010723;28;20469;-69
2022/12/01 00:24:11;;;;;;;5.53;5.03;;;19.90;67.60;;;;;;5008685;28;20524;-68
2022/12/01 00:26:39;;;;;;;5.37;4.87;;;19.90;67.60;;;;;;5008398;28;20967;-69
2022/12/01 00:29:08;;;;;;;5.00;4.50;;;19.90;67.60;;;;;;4989984;28;20462;-69
2022/12/01 00:31:36;;;;;;;5.00;4.60;;;19.90;67.60;;;;;;5010636;28;20454;-69
2022/12/01 00:34:05;;;;;;;4.93;4.53;;;19.90;67.60;;;;;;5010075;28;20461;-69
2022/12/01 00:36:39;;;;;;;5.40;4.90;;;19.90;67.60;;;;;;5007190;28;20476;-69
2022/12/01 00:39:09;;;;;;;6.37;5.77;;;19.90;67.60;;;;;;5008866;28;20523;-69
2022/12/01 00:41:37;;;;;;;5.10;4.60;;;19.90;67.60;;;;;;5010720;28;20453;-69
2022/12/01 00:44:05;;;;;;;5.20;4.70;;;19.90;67.60;;;;;;5010083;28;20549;-69
2022/12/01 00:46:34;;;;;;;5.97;5.47;;;19.90;67.60;;;;;;5009285;28;20463;-69
2022/12/01 00:49:02;;;;;;;4.70;4.30;;;19.90;67.60;;;;;;5007959;28;20573;-69
2022/12/01 00:51:30;;;;;;;5.30;4.30;;;19.90;67.60;;;;;;5008439;28;20541;-69
2022/12/01 00:53:58;;;;;;;5.20;4.73;;;19.90;67.60;;;;;;5002748;28;20858;-69
2022/12/01 00:56:28;;;;;;;6.17;5.30;;;19.90;67.50;;;;;;5010857;28;20485;-69
2022/12/01 00:58:56;;;;;;;4.83;4.43;;;19.90;67.50;;;;;;5009898;28;20540;-69
2022/12/01 01:01:24;;;;;;;5.13;4.63;;;19.90;67.50;;;;;;5011038;28;20881;-69
2022/12/01 01:03:53;;;;;;;4.93;4.53;;;19.90;67.50;;;;;;5009647;28;20981;-69
2022/12/01 01:06:21;;;;;;;6.07;5.47;;;19.90;67.50;;;;;;5009776;28;20553;-69
2022/12/01 01:08:49;;;;;;;5.20;4.80;;;19.90;67.50;;;;;;5001380;28;20470;-69
2022/12/01 01:11:17;;;;;;;4.90;4.50;;;19.90;67.50;;;;;;5007422;28;20469;-69
2022/12/01 01:13:47;;;;;;;4.87;4.47;;;19.90;67.50;;;;;;5008853;28;20455;-69
2022/12/01 01:16:17;;;;;;;5.13;4.40;;;19.90;67.40;;;;;;5012904;28;20513;-69
2022/12/01 01:18:46;;;;;;;5.00;4.53;;;19.90;67.40;;;;;;5012780;28;20489;-73
2022/12/01 01:21:16;;;;;;;5.47;5.00;;;19.90;67.40;;;;;;5013557;28;21374;-69
2022/12/01 01:23:44;;;;;;;5.03;4.63;;;19.90;67.40;;;;;;5013188;28;20454;-69
2022/12/01 01:26:17;;;;;;;5.10;4.70;;;19.90;67.40;;;;;;5013290;28;20553;-69
2022/12/01 01:28:47;;;;;;;5.93;5.33;;;19.90;67.40;;;;;;5011592;28;20556;-68
2022/12/01 01:31:17;;;;;;;5.80;5.30;;;19.90;67.40;;;;;;5008779;28;20551;-68
2022/12/01 01:33:46;;;;;;;5.60;5.10;;;19.90;67.30;;;;;;5007394;28;20464;-69
2022/12/01 01:36:15;;;;;;;4.53;4.13;;;19.90;67.30;;;;;;5010293;28;21023;-68
2022/12/01 01:38:44;;;;;;;5.47;4.80;;;19.90;67.30;;;;;;5013141;28;20457;-68
2022/12/01 01:41:13;;;;;;;6.17;5.00;;;19.90;67.30;;;;;;5012584;28;20449;-68
2022/12/01 01:43:48;;;;;;;5.63;5.00;;;19.80;67.30;;;;;;5011519;28;20547;-68
2022/12/01 01:46:18;;;;;;;5.27;4.77;;;19.80;67.30;;;;;;5012424;28;20564;-69
2022/12/01 01:48:52;;;;;;;5.00;4.60;;;19.80;67.30;;;;;;5010873;28;20532;-69
2022/12/01 01:51:23;;;;;;;5.60;5.07;;;19.80;67.30;;;;;;5013676;28;20457;-69
2022/12/01 01:53:55;;;;;;;4.63;4.20;;;19.80;67.30;;;;;;5011183;28;20450;-69
2022/12/01 01:56:24;;;;;;;4.80;4.30;;;19.80;67.30;;;;;;5011109;28;20604;-68
2022/12/01 01:58:54;;;;;;;4.80;4.40;;;19.80;67.20;;;;;;5012919;28;20470;-69
2022/12/01 02:01:23;;;;;;;6.10;5.50;;;19.80;67.20;;;;;;4995084;28;20528;-69
2022/12/01 02:03:53;;;;;;;4.57;4.27;;;19.80;67.20;;;;;;5012809;28;20463;-69
2022/12/01 02:06:23;;;;;;;5.10;4.70;;;19.80;67.20;;;;;;5012263;28;20454;-68
2022/12/01 02:08:52;;;;;;;4.90;4.50;;;19.80;67.20;;;;;;5012379;28;20488;-69
2022/12/01 02:11:48;;;;;;;5.67;5.17;;;19.80;67.20;;;;;;5011336;28;20557;-69
2022/12/01 02:14:36;;;;;;;4.70;4.30;;;19.80;67.20;;;;;;5011982;28;20488;-69
2022/12/01 02:17:14;;;;;;;4.60;4.20;;;19.80;67.20;;;;;;5011985;28;20520;-69
2022/12/01 02:20:19;;;;;;;5.37;4.97;;;19.80;67.20;;;;;;5011322;28;20496;-69
2022/12/01 02:22:58;;;;;;;5.33;4.83;;;19.80;67.10;;;;;;5012849;28;20550;-68
2022/12/01 02:25:36;;;;;;;5.13;4.63;;;19.80;67.20;;;;;;5010517;28;20489;-69
2022/12/01 02:28:41;;;;;;;5.20;4.70;;;19.80;67.20;;;;;;5009332;28;20854;-72
2022/12/01 02:31:16;;;;;;;5.37;4.90;;;19.80;67.20;;;;;;5007765;28;20967;-69
2022/12/01 02:33:51;;;;;;;5.30;4.90;;;19.70;67.20;;;;;;5013117;28;20980;-69
2022/12/01 02:36:27;;;;;;;4.70;4.30;;;19.70;67.20;;;;;;4994069;28;20567;-68
2022/12/01 02:39:05;;;;;;;5.97;5.10;;;19.70;67.20;;;;;;5011359;28;20565;-68
2022/12/01 02:41:39;;;;;;;5.50;5.10;;;19.70;67.20;;;;;;5013609;28;20864;-68
2022/12/01 02:44:13;;;;;;;4.70;4.30;;;19.70;67.20;;;;;;5005800;28;20476;-69
2022/12/01 02:46:47;;;;;;;4.57;4.17;;;19.70;67.20;;;;;;5008923;28;20462;-69
2022/12/01 02:49:19;;;;;;;5.43;4.80;;;19.70;67.20;;;;;;5007463;28;20478;-69
2022/12/01 02:51:48;;;;;;;4.80;4.40;;;19.70;67.10;;;;;;5010728;28;20449;-68
2022/12/01 02:54:17;;;;;;;5.43;4.93;;;19.70;67.10;;;;;;5011537;28;20554;-68
2022/12/01 02:56:46;;;;;;;4.83;4.43;;;19.70;67.10;;;;;;5010951;28;20474;-69
2022/12/01 02:59:15;;;;;;;4.40;4.00;;;19.70;67.10;;;;;;5010621;28;20497;-68
2022/12/01 03:01:59;;;;;;;5.13;4.63;;;19.70;67.10;;;;;;5008245;28;20550;-69
2022/12/01 03:04:49;;;;;;;7.20;5.30;;;19.70;67.10;;;;;;5009127;28;20464;-69
2022/12/01 03:07:42;;;;;;;5.03;4.63;;;19.70;67.10;;;;;;5011363;28;20883;-68
2022/12/01 03:10:19;;;;;;;4.07;3.77;;;19.70;67.10;;;;;;5008712;28;20461;-69
2022/12/01 03:12:58;;;;;;;6.50;5.90;;;19.70;67.10;;;;;;5011513;28;20551;-69
2022/12/01 03:15:36;;;;;;;5.27;4.87;;;19.70;67.10;;;;;;5011026;28;20542;-69
2022/12/01 03:18:18;;;;;;;4.33;3.93;;;19.70;67.00;;;;;;5009929;28;20468;-69
2022/12/01 03:20:56;;;;;;;4.97;4.50;;;19.70;67.00;;;;;;5002840;28;20554;-69
2022/12/01 03:23:30;;;;;;;5.33;4.83;;;19.70;67.00;;;;;;5009466;28;20461;-69
2022/12/01 03:26:01;;;;;;;5.43;4.93;;;19.70;67.00;;;;;;5008913;28;20489;-69
2022/12/01 03:28:33;;;;;;;4.80;4.40;;;19.70;67.00;;;;;;5007337;28;20489;-69
2022/12/01 03:31:06;;;;;;;5.20;4.73;;;19.70;67.00;;;;;;5009094;28;20457;-68
2022/12/01 03:33:40;;;;;;;4.43;4.03;;;19.70;67.00;;;;;;5013339;28;20450;-69
2022/12/01 03:36:14;;;;;;;5.27;4.80;;;19.70;67.00;;;;;;5014052;28;20973;-68
2022/12/01 03:38:46;;;;;;;4.70;4.30;;;19.70;66.90;;;;;;5012196;28;20994;-69
2022/12/01 03:41:19;;;;;;;4.60;4.20;;;19.70;66.90;;;;;;5011276;28;20474;-69
2022/12/01 03:43:53;;;;;;;4.87;4.37;;;19.70;66.90;;;;;;5010366;28;20459;-68
2022/12/01 03:46:29;;;;;;;4.57;4.17;;;19.70;66.90;;;;;;5006445;28;20468;-68
2022/12/01 03:48:59;;;;;;;4.60;4.30;;;19.70;66.90;;;;;;5014431;28;20571;-68
2022/12/01 03:51:36;;;;;;;5.30;4.80;;;19.70;66.90;;;;;;5009054;28;20549;-68
2022/12/01 03:54:11;;;;;;;5.20;4.70;;;19.70;66.90;;;;;;5001541;28;20556;-69
2022/12/01 03:56:47;;;;;;;4.90;4.50;;;19.70;66.90;;;;;;5009739;28;20613;-69
2022/12/01 03:59:17;;;;;;;5.33;4.87;;;19.70;66.90;;;;;;5009746;28;20548;-68
2022/12/01 04:01:46;;;;;;;5.30;4.80;;;19.70;66.90;;;;;;5010375;28;20850;-69
2022/12/01 04:04:15;;;;;;;4.83;4.43;;;19.70;66.90;;;;;;5010666;28;20455;-69
2022/12/01 04:06:47;;;;;;;4.37;4.03;;;19.70;66.80;;;;;;5010213;28;20582;-68
2022/12/01 04:09:15;;;;;;;5.20;4.60;;;19.70;66.80;;;;;;5001906;28;20489;-69
2022/12/01 04:14:33;;;;;;;4.90;4.60;;;19.70;66.80;;;;;;4983403;28;20502;-69
2022/12/01 04:17:01;;;;;;;4.70;4.30;;;19.70;66.80;;;;;;5010712;28;20829;-69
2022/12/01 04:19:31;;;;;;;4.60;4.20;;;19.70;66.80;;;;;;5009727;28;21393;-69
2022/12/01 04:21:59;;;;;;;5.47;4.97;;;19.70;66.80;;;;;;5010430;28;20468;-68
2022/12/01 04:24:27;;;;;;;5.00;4.60;;;19.70;66.80;;;;;;5005801;28;20909;-69
2022/12/01 04:26:56;;;;;;;5.33;4.83;;;19.70;66.80;;;;;;5011248;28;20850;-68
2022/12/01 04:29:24;;;;;;;4.20;3.80;;;19.60;66.80;;;;;;5007715;28;20558;-69
2022/12/01 04:31:52;;;;;;;4.60;4.03;;;19.60;66.80;;;;;;5010152;28;20552;-69
2022/12/01 04:34:20;;;;;;;5.93;5.43;;;19.60;66.80;;;;;;5006878;28;20465;-69
2022/12/01 04:36:50;;;;;;;4.83;4.43;;;19.60;66.80;;;;;;5010754;28;20451;-68
2022/12/01 04:39:18;;;;;;;4.90;4.47;;;19.60;66.80;;;;;;5004081;28;20556;-69
2022/12/01 04:41:46;;;;;;;4.60;4.17;;;19.60;66.90;;;;;;5010935;28;20459;-68
2022/12/01 04:44:15;;;;;;;4.03;3.67;;;19.60;66.90;;;;;;5010214;28;20493;-69
2022/12/01 04:46:43;;;;;;;5.40;4.90;;;19.60;66.90;;;;;;5009390;28;20457;-69
2022/12/01 04:49:11;;;;;;;4.90;4.50;;;19.60;66.90;;;;;;5012541;28;20480;-69
2022/12/01 04:51:39;;;;;;;4.70;4.30;;;19.60;66.90;;;;;;5015038;28;20544;-72
2022/12/01 04:54:09;;;;;;;4.67;4.37;;;19.60;66.90;;;;;;5010804;28;20460;-68
2022/12/01 04:56:37;;;;;;;4.60;4.20;;;19.60;66.90;;;;;;5014555;28;20952;-69
2022/12/01 04:59:05;;;;;;;5.37;4.87;;;19.60;66.80;;;;;;5013491;28;20480;-69
2022/12/01 05:01:34;;;;;;;5.03;4.60;;;19.60;66.80;;;;;;5009754;28;20809;-69
2022/12/01 05:04:03;;;;;;;4.37;3.90;;;19.60;66.80;;;;;;5010004;28;20803;-69
2022/12/01 05:06:31;;;;;;;4.27;3.97;;;19.60;66.80;;;;;;5012098;28;20557;-69
2022/12/01 05:09:01;;;;;;;4.23;3.93;;;19.60;66.80;;;;;;5010386;28;20476;-69
2022/12/01 05:11:31;;;;;;;4.60;4.20;;;19.60;66.80;;;;;;5009903;28;20556;-69
2022/12/01 05:14:00;;;;;;;5.00;4.60;;;19.60;66.80;;;;;;5010240;28;20561;-69
2022/12/01 05:16:31;;;;;;;5.20;4.70;;;19.60;66.80;;;;;;5007016;28;20489;-69
2022/12/01 05:21:49;;;;;;;4.27;3.87;;;19.60;66.70;;;;;;4988996;28;20499;-67
2022/12/01 05:24:20;;;;;;;5.43;4.90;;;19.60;66.70;;;;;;5001245;28;21151;-67
2022/12/01 05:26:50;;;;;;;4.43;4.07;;;19.60;66.80;;;;;;5009142;28;20972;-67
2022/12/01 05:29:18;;;;;;;4.90;4.50;;;19.60;66.90;;;;;;5010381;28;20457;-67
2022/12/01 05:31:47;;;;;;;4.33;4.00;;;19.60;66.90;;;;;;5006883;28;20464;-67
2022/12/01 05:34:15;;;;;;;5.07;4.63;;;19.60;66.80;;;;;;5003405;28;20560;-67
2022/12/01 05:36:43;;;;;;;4.40;4.00;;;19.60;66.90;;;;;;5007486;28;20552;-67
2022/12/01 05:39:12;;;;;;;4.63;4.33;;;19.60;67.10;;;;;;4999447;28;20476;-67
2022/12/01 05:41:40;;;;;;;5.70;5.10;;;19.60;66.90;;;;;;5004213;28;20792;-67
2022/12/01 05:44:10;;;;;;;5.27;4.77;;;19.60;66.90;;;;;;5006905;28;20588;-68
2022/12/01 05:46:38;;;;;;;4.40;4.03;;;19.60;66.90;;;;;;5008255;28;20462;-67
2022/12/01 05:49:08;;;;;;;5.00;4.53;;;19.60;66.90;;;;;;5009140;28;20581;-67
2022/12/01 05:51:38;;;;;;;5.30;4.80;;;19.60;66.90;;;;;;5001687;28;20472;-67
2022/12/01 05:54:07;;;;;;;5.00;4.60;;;19.60;67.30;;;;;;5003777;28;20493;-68
2022/12/01 05:56:35;;;;;;;7.40;5.17;;;19.60;67.80;;;;;;5010145;28;20485;-67
2022/12/01 05:59:03;;;;;;;6.10;5.00;;;19.50;68.10;;;;;;5012321;28;20509;-68
2022/12/01 06:01:33;;;;;;;5.67;5.17;;;19.60;68.70;;;;;;5008492;28;20565;-68
2022/12/01 06:04:01;;;;;;;5.43;4.93;;;19.50;68.80;;;;;;5008306;28;20955;-66
2022/12/01 06:06:29;;;;;;;6.30;4.63;;;19.50;68.80;;;;;;5009887;28;20462;-66
2022/12/01 06:08:57;;;;;;;4.80;4.33;;;19.50;68.70;;;;;;5009520;28;20459;-67
2022/12/01 06:11:25;;;;;;;5.03;4.43;;;19.50;68.70;;;;;;5009670;28;20544;-66
2022/12/01 06:13:54;;;;;;;5.67;4.50;;;19.50;68.60;;;;;;5009032;28;20498;-66
2022/12/01 06:16:22;;;;;;;5.10;4.60;;;19.50;68.90;;;;;;5004933;28;20992;-66
2022/12/01 06:18:52;;;;;;;5.23;4.63;;;19.50;68.90;;;;;;5004582;28;20484;-65
2022/12/01 06:21:20;;;;;;;5.50;5.00;;;19.50;69.00;;;;;;5006141;28;20493;-65
2022/12/01 06:23:48;;;;;;;5.30;4.60;;;19.50;68.80;;;;;;5006700;28;20465;-65
2022/12/01 06:26:16;;;;;;;6.17;4.60;;;19.50;68.50;;;;;;5008348;28;20449;-65
2022/12/01 06:28:44;;;;;;;5.63;4.60;;;19.50;68.50;;;;;;5010471;28;20890;-65
2022/12/01 06:31:13;;;;;;;4.93;4.33;;;19.50;68.40;;;;;;5002822;28;20473;-65
2022/12/01 06:33:41;;;;;;;5.90;4.83;;;19.50;68.40;;;;;;5005094;28;20532;-66
2022/12/01 06:36:11;;;;;;;8.27;5.20;;;19.50;68.30;;;;;;4998276;28;20454;-65
2022/12/01 06:38:39;;;;;;;7.73;4.67;;;19.50;68.60;;;;;;5004347;28;20475;-66
2022/12/01 06:41:08;;;;;;;6.63;4.33;;;19.50;68.40;;;;;;5006292;28;20524;-66
2022/12/01 06:43:37;;;;;;;7.23;4.50;;;19.50;68.40;;;;;;5008380;28;20486;-66
2022/12/01 06:46:05;;;;;;;9.03;5.27;;;19.60;68.20;;;;;;5007058;28;21029;-66
2022/12/01 06:48:34;;;;;;;9.00;5.50;;;19.60;68.60;;;;;;5005740;28;20523;-66
2022/12/01 06:51:03;;;;;;;7.83;6.80;;;19.60;68.60;;;;;;5005263;28;20821;-66
2022/12/01 06:53:32;;;;;;;8.70;6.10;;;19.60;69.10;;;;;;5011660;28;20494;-66
2022/12/01 06:56:01;;;;;;;5.70;5.20;;;19.60;69.80;;;;;;5008769;28;20561;-66
2022/12/01 06:58:29;;;;;;;6.33;5.20;;;19.60;69.60;;;;;;5011794;28;20478;-66
2022/12/01 07:00:58;;;;;;;6.47;5.87;;;19.60;69.80;;;;;;5012221;28;20476;-66
2022/12/01 07:03:27;;;;;;;6.93;5.70;;;19.70;70.00;;;;;;5010612;28;20459;-66
2022/12/01 07:05:57;;;;;;;6.80;6.20;;;19.70;69.80;;;;;;5010028;28;20446;-66
2022/12/01 07:08:25;;;;;;;8.03;6.40;;;19.70;69.80;;;;;;5010249;28;20477;-66
2022/12/01 07:10:59;;;;;;;6.43;5.70;;;19.70;69.80;;;;;;5007581;28;20450;-66
2022/12/01 07:13:27;;;;;;;6.50;5.63;;;19.70;69.80;;;;;;5008837;28;20441;-66
2022/12/01 07:16:01;;;;;;;8.20;5.13;;;19.80;69.80;;;;;;5010932;28;20452;-66
2022/12/01 07:18:30;;;;;;;10.40;5.50;;;19.80;69.70;;;;;;5008730;28;20831;-65
2022/12/01 07:21:00;;;;;;;9.03;5.57;;;19.80;69.60;;;;;;5010889;28;20547;-66
2022/12/01 07:23:28;;;;;;;6.13;5.53;;;19.90;69.50;;;;;;5009794;28;20454;-66
2022/12/01 07:26:03;;;;;;;6.57;5.97;;;19.90;69.40;;;;;;5011101;28;20549;-66
2022/12/01 07:28:32;;;;;;;7.70;6.30;;;19.90;69.30;;;;;;5010919;28;21126;-66
2022/12/01 07:31:05;;;;;;;7.40;6.17;;;19.90;69.10;;;;;;5011497;28;20547;-66
2022/12/01 07:33:33;;;;;;;7.03;5.90;;;19.90;69.10;;;;;;5011216;28;20454;-66
2022/12/01 07:36:01;;;;;;;7.30;5.97;;;19.90;68.90;;;;;;5011799;28;20454;-66
2022/12/01 07:38:30;;;;;;;10.63;6.53;;;20.00;68.80;;;;;;5013991;28;20533;-66
2022/12/01 07:41:04;;;;;;;7.97;6.23;;;20.00;68.80;;;;;;5011255;28;21030;-65
2022/12/01 07:43:33;;;;;;;7.67;6.20;;;20.00;68.80;;;;;;5003076;28;20545;-67
2022/12/01 07:46:07;;;;;;;11.10;5.97;;;20.00;68.70;;;;;;5010131;28;20582;-66
2022/12/01 07:48:36;;;;;;;8.07;5.80;;;20.00;68.60;;;;;;5010312;28;20837;-65
2022/12/01 07:51:05;;;;;;;8.70;5.80;;;20.00;68.50;;;;;;5011589;28;20486;-65
2022/12/01 07:53:33;;;;;;;6.97;5.70;;;20.00;68.20;;;;;;5011440;28;20572;-73
2022/12/01 07:56:04;;;;;;;5.77;5.27;;;20.00;68.00;;;;;;5005422;28;20488;-64
2022/12/01 07:58:36;;;;;;;8.63;6.57;;;20.10;68.00;;;;;;5009324;28;20549;-69
2022/12/01 08:01:08;;;;;;;7.47;6.33;;;20.10;68.10;;;;;;5009469;28;20534;-68
2022/12/01 08:03:37;;;;;;;9.00;6.43;;;20.10;68.30;;;;;;5009680;28;20926;-68
2022/12/01 08:06:06;;;;;;;7.87;6.20;;;20.10;68.40;;;;;;5009947;28;20445;-68
2022/12/01 08:08:36;;;;;;;7.00;5.70;;;20.10;68.30;;;;;;5010666;28;20537;-68
2022/12/01 08:11:09;;;;;;;7.37;6.07;;;20.10;68.20;;;;;;5010263;28;20494;-68
2022/12/01 08:13:38;;;;;;;8.60;5.57;;;20.10;68.20;;;;;;5011349;28;20487;-68
2022/12/01 08:16:08;;;;;;;6.80;6.20;;;20.10;68.20;;;;;;5005614;28;20451;-68
2022/12/01 08:18:38;;;;;;;6.83;6.23;;;20.10;68.20;;;;;;5010501;28;20461;-68
2022/12/01 08:21:07;;;;;;;7.30;6.60;;;20.10;68.10;;;;;;5011421;28;20482;-67
2022/12/01 08:23:36;;;;;;;6.20;5.37;;;20.20;68.10;;;;;;5006178;28;20459;-67
2022/12/01 08:26:08;;;;;;;7.23;6.30;;;20.20;68.20;;;;;;5011747;28;20520;-67
2022/12/01 08:28:36;;;;;;;8.63;5.93;;;20.20;68.20;;;;;;5015584;28;20446;-67
2022/12/01 08:31:09;;;;;;;5.70;5.07;;;20.20;68.20;;;;;;5013822;28;20545;-68
2022/12/01 08:33:37;;;;;;;8.03;5.90;;;20.20;68.10;;;;;;5009389;28;20616;-68
2022/12/01 08:36:06;;;;;;;6.40;5.80;;;20.20;68.20;;;;;;5015243;28;20462;-68
2022/12/01 08:38:34;;;;;;;6.80;6.10;;;20.20;68.20;;;;;;5012077;28;20454;-68
2022/12/01 08:41:06;;;;;;;7.45;6.30;;;20.20;68.10;;;;;;5013878;28;20906;-77
2022/12/01 08:43:38;;;;;;;6.80;6.10;;;20.20;68.10;;;;;;5014306;28;20539;-66
2022/12/01 08:46:25;;;;;;;5.83;5.23;;;20.30;67.90;;;;;;5014874;28;20461;-66
2022/12/01 08:48:56;;;;;;;6.20;5.60;;;20.30;68.10;;;;;;5014521;28;20490;-66
2022/12/01 08:51:25;;;;;;;6.57;5.80;;;20.30;68.20;;;;;;5015163;28;20454;-66
2022/12/01 08:53:55;;;;;;;7.33;5.90;;;20.30;68.20;;;;;;5013528;28;20497;-66
2022/12/01 08:56:27;;;;;;;6.60;5.90;;;20.30;68.30;;;;;;5014608;28;20524;-66
2022/12/01 08:58:55;;;;;;;7.97;6.13;;;20.30;68.30;;;;;;5013837;28;20500;-66
2022/12/01 09:01:24;;;;;;;7.07;6.37;;;20.30;68.30;;;;;;5014541;28;20516;-66
2022/12/01 09:04:04;;;;;;;6.30;5.70;;;20.30;68.30;;;;;;5009968;28;20451;-66
2022/12/01 09:06:35;;;;;;;8.43;6.10;;;20.30;68.30;;;;;;5014736;28;20446;-66
2022/12/01 09:09:03;;;;;;;5.00;4.50;;;20.30;68.30;;;;;;5013948;28;20505;-67
2022/12/01 09:11:33;;;;;;;6.67;5.63;;;20.30;68.40;;;;;;5011436;28;20497;-66
2022/12/01 09:14:01;;;;;;;5.73;5.10;;;20.30;68.40;;;;;;5014131;28;20782;-66
2022/12/01 09:16:29;;;;;;;6.00;5.40;;;20.40;68.40;;;;;;5013499;28;20965;-67
2022/12/01 09:18:57;;;;;;;7.43;5.87;;;20.40;68.30;;;;;;5013038;28;20524;-66
2022/12/01 09:21:29;;;;;;;6.33;5.70;;;20.40;68.30;;;;;;5012662;28;20478;-66
2022/12/01 09:23:57;;;;;;;8.80;5.70;;;20.40;68.40;;;;;;5013039;28;20928;-66
2022/12/01 09:26:26;;;;;;;5.80;5.30;;;20.40;68.40;;;;;;5011638;28;20870;-67
2022/12/01 09:28:58;;;;;;;5.13;4.63;;;20.40;68.40;;;;;;5014015;28;20487;-66
2022/12/01 09:31:26;;;;;;;5.57;4.97;;;20.40;68.40;;;;;;5013742;28;20566;-66
2022/12/01 09:33:56;;;;;;;6.50;6.00;;;20.40;68.30;;;;;;5013356;28;20458;-67
2022/12/01 09:36:25;;;;;;;6.17;5.67;;;20.40;68.40;;;;;;5009306;28;20493;-69
2022/12/01 09:38:53;;;;;;;5.60;4.97;;;20.40;68.40;;;;;;5007050;28;20535;-70
2022/12/01 09:41:26;;;;;;;7.03;5.50;;;20.40;68.10;;;;;;5005412;28;20549;-69
2022/12/01 09:44:00;;;;;;;5.70;5.20;;;20.40;67.90;;;;;;5007236;28;20609;-66
2022/12/01 09:46:34;;;;;;;6.20;5.60;;;20.40;67.90;;;;;;5012195;28;20466;-66
2022/12/01 09:49:04;;;;;;;8.10;5.50;;;20.40;67.90;;;;;;5010251;28;20478;-66
2022/12/01 09:51:36;;;;;;;5.40;5.00;;;20.40;67.90;;;;;;5008790;28;20797;-66
2022/12/01 09:54:04;;;;;;;7.60;5.60;;;20.40;67.90;;;;;;5007289;28;21122;-66
2022/12/01 09:56:40;;;;;;;5.90;5.20;;;20.40;68.00;;;;;;5013219;28;21120;-66
2022/12/01 09:59:17;;;;;;;5.97;5.37;;;20.40;68.00;;;;;;5011726;28;20959;-66
2022/12/01 10:01:49;;;;;;;5.53;5.03;;;20.50;68.00;;;;;;5010423;28;20567;-66
2022/12/01 10:04:24;;;;;;;5.10;4.60;;;20.50;67.90;;;;;;5012866;28;20523;-66
2022/12/01 10:06:58;;;;;;;6.27;5.80;;;20.40;67.90;;;;;;5012949;28;20534;-66
2022/12/01 10:09:34;;;;;;;6.33;5.83;;;20.50;67.90;;;;;;5012302;28;20522;-66
2022/12/01 10:12:12;;;;;;;6.70;6.10;;;20.50;67.80;;;;;;5013487;28;20538;-66
2022/12/01 10:14:43;;;;;;;9.23;5.60;;;20.50;67.70;;;;;;5013271;28;20453;-66
2022/12/01 10:17:21;;;;;;;4.53;4.13;;;20.50;67.70;;;;;;5012762;28;20460;-65
2022/12/01 10:19:57;;;;;;;6.60;5.93;;;20.50;67.70;;;;;;5010884;28;20466;-65
2022/12/01 10:22:54;;;;;;;5.90;5.30;;;20.50;67.70;;;;;;5012347;28;20545;-65
2022/12/01 10:25:24;;;;;;;5.43;4.93;;;20.50;67.60;;;;;;5007121;28;20514;-66
2022/12/01 10:28:21;;;;;;;6.20;5.70;;;20.60;67.60;;;;;;5011931;28;20451;-67
2022/12/01 10:30:52;;;;;;;6.53;5.83;;;20.60;67.70;;;;;;5009672;28;20542;-66
2022/12/01 10:33:24;;;;;;;7.13;5.40;;;20.60;67.70;;;;;;5011264;28;20537;-65
2022/12/01 10:35:54;;;;;;;5.60;5.07;;;20.60;67.60;;;;;;5011561;28;20450;-70
2022/12/01 10:38:26;;;;;;;5.53;5.03;;;20.60;67.60;;;;;;5011286;28;20458;-69
2022/12/01 10:40:56;;;;;;;6.23;5.40;;;20.60;67.70;;;;;;5010044;28;20506;-70
2022/12/01 10:43:32;;;;;;;6.30;5.70;;;20.60;67.70;;;;;;5009344;28;20520;-69
2022/12/01 10:46:08;;;;;;;6.87;5.07;;;20.60;67.70;;;;;;5010511;28;20563;-68
2022/12/01 10:48:53;;;;;;;5.20;4.50;;;20.60;67.70;;;;;;5010357;28;20479;-70
2022/12/01 10:51:22;;;;;;;5.97;5.33;;;20.60;67.80;;;;;;5011552;28;20447;-71
2022/12/01 10:53:58;;;;;;;5.70;5.10;;;20.60;67.90;;;;;;5009587;28;20473;-70
2022/12/01 10:56:27;;;;;;;6.07;5.40;;;20.60;67.80;;;;;;5009152;28;20540;-70
2022/12/01 10:58:57;;;;;;;4.90;4.50;;;20.60;67.90;;;;;;5010252;28;20505;-69
2022/12/01 11:01:30;;;;;;;5.90;5.40;;;20.60;67.90;;;;;;5008556;28;20479;-67
2022/12/01 11:04:03;;;;;;;5.60;5.10;;;20.60;68.00;;;;;;4999405;28;20451;-67
2022/12/01 11:06:33;;;;;;;5.50;4.73;;;20.60;67.80;;;;;;5011551;28;20478;-67
2022/12/01 11:09:03;;;;;;;5.93;5.43;;;20.60;67.80;;;;;;5011262;28;20849;-67
2022/12/01 11:11:35;;;;;;;5.17;4.63;;;20.60;67.80;;;;;;5007526;28;20504;-67
2022/12/01 11:14:09;;;;;;;5.73;5.23;;;20.60;67.80;;;;;;5011412;28;20488;-67
2022/12/01 11:16:44;;;;;;;6.57;5.33;;;20.60;67.80;;;;;;5012232;28;20474;-67
2022/12/01 11:19:29;;;;;;;5.40;4.90;;;20.60;67.80;;;;;;5012532;28;20451;-66
2022/12/01 11:21:59;;;;;;;6.00;5.40;;;20.60;67.80;;;;;;5007347;28;20564;-66
2022/12/01 11:24:40;;;;;;;5.77;5.27;;;20.60;67.90;;;;;;5010171;28;20573;-67
2022/12/01 11:27:15;;;;;;;5.63;5.10;;;20.60;67.90;;;;;;5009725;28;20455;-66
2022/12/01 11:29:45;;;;;;;5.20;4.70;;;20.60;67.90;;;;;;5009398;28;20519;-67
2022/12/01 11:32:21;;;;;;;5.10;4.70;;;20.60;67.80;;;;;;5012071;28;20451;-67
2022/12/01 11:34:54;;;;;;;5.60;5.10;;;20.60;67.80;;;;;;5006864;28;20492;-68
2022/12/01 11:37:25;;;;;;;5.10;4.70;;;20.60;67.80;;;;;;5012636;28;20455;-67
2022/12/01 11:39:54;;;;;;;5.60;5.10;;;20.60;67.80;;;;;;5011425;28;20482;-67
2022/12/01 11:42:26;;;;;;;4.77;4.37;;;20.60;67.80;;;;;;5012346;28;20500;-66
2022/12/01 11:44:57;;;;;;;6.47;5.17;;;20.60;67.80;;;;;;5010569;28;20491;-66
2022/12/01 11:47:27;;;;;;;6.00;5.40;;;20.60;67.80;;;;;;5011731;28;20475;-69
2022/12/01 11:49:57;;;;;;;5.80;5.30;;;20.60;67.70;;;;;;5010426;28;20498;-68
2022/12/01 11:52:29;;;;;;;5.73;5.23;;;20.60;67.50;;;;;;5008712;28;20971;-69
2022/12/01 11:55:02;;;;;;;5.80;5.20;;;20.60;67.20;;;;;;5009494;28;20454;-69
2022/12/01 11:57:40;;;;;;;5.47;4.97;;;20.60;67.00;;;;;;5011350;28;20474;-69
2022/12/01 12:00:15;;;;;;;5.30;4.90;;;20.60;66.80;;;;;;5008229;28;20491;-69
2022/12/01 12:03:01;;;;;;;5.30;4.80;;;20.60;66.60;;;;;;4992168;28;20479;-68
2022/12/01 12:05:49;;;;;;;5.90;5.30;;;20.60;66.50;;;;;;5010324;28;20451;-69
2022/12/01 12:08:31;;;;;;;8.13;5.87;;;20.60;66.50;;;;;;5009823;28;20923;-69
2022/12/01 12:11:11;;;;;;;6.17;5.57;;;20.60;66.50;;;;;;5005522;28;20467;-70
2022/12/01 12:13:59;;;;;;;5.80;5.30;;;20.60;66.30;;;;;;4997907;28;20456;-70
2022/12/01 12:16:38;;;;;;;5.33;4.93;;;20.60;66.20;;;;;;5003914;28;20521;-68
2022/12/01 12:19:26;;;;;;;6.53;5.30;;;20.60;66.30;;;;;;5006093;28;20498;-70
2022/12/01 12:22:20;;;;;;;6.83;5.60;;;20.60;66.20;;;;;;5004681;28;20482;-70
2022/12/01 12:25:00;;;;;;;6.77;6.17;;;20.60;66.00;;;;;;5002021;28;20893;-70
2022/12/01 12:27:39;;;;;;;5.33;4.83;;;20.60;66.00;;;;;;4999004;28;20487;-70
2022/12/01 12:30:20;;;;;;;6.13;5.63;;;20.60;65.80;;;;;;5000045;28;21043;-70
2022/12/01 12:33:24;;;;;;;6.20;5.70;;;20.60;65.80;;;;;;5004295;28;20924;-70
2022/12/01 12:36:03;;;;;;;6.80;5.70;;;20.60;65.60;;;;;;5001962;28;20525;-67
2022/12/01 12:38:48;;;;;;;6.27;5.63;;;20.60;65.40;;;;;;5000285;28;20550;-70
2022/12/01 12:41:28;;;;;;;5.90;5.40;;;20.50;65.30;;;;;;4999905;28;20967;-69
2022/12/01 12:44:13;;;;;;;6.10;5.50;;;20.50;65.20;;;;;;5005200;28;20471;-67
2022/12/01 12:46:48;;;;;;;5.70;5.20;;;20.50;65.10;;;;;;5003223;28;20537;-70
2022/12/01 12:49:36;;;;;;;5.80;5.30;;;20.50;65.20;;;;;;5004320;28;20485;-69
2022/12/01 12:52:11;;;;;;;6.13;4.80;;;20.50;65.30;;;;;;5003349;28;20516;-69
2022/12/01 12:54:47;;;;;;;5.90;5.37;;;20.50;65.30;;;;;;5001304;28;20480;-69
2022/12/01 12:57:24;;;;;;;6.10;5.57;;;20.50;65.20;;;;;;5002930;28;20559;-69
2022/12/01 12:59:59;;;;;;;8.13;7.43;;;20.50;65.10;;;;;;4999591;28;20496;-68
2022/12/01 13:02:34;;;;;;;9.37;6.33;;;20.50;65.20;;;;;;4996630;28;20570;-69
2022/12/01 13:05:07;;;;;;;7.40;6.70;;;20.50;65.20;;;;;;5009847;28;20468;-70
2022/12/01 13:07:43;;;;;;;7.57;6.87;;;20.40;65.20;;;;;;5000853;28;20467;-70
2022/12/01 13:10:25;;;;;;;6.93;6.20;;;20.40;65.20;;;;;;5003524;28;20805;-70
2022/12/01 13:12:59;;;;;;;7.23;6.53;;;20.40;65.20;;;;;;5009534;28;21070;-70
2022/12/01 13:15:29;;;;;;;7.70;7.10;;;20.40;65.20;;;;;;5004065;28;20511;-70
2022/12/01 13:18:01;;;;;;;8.33;6.77;;;20.40;65.20;;;;;;5002911;28;20462;-68
2022/12/01 13:20:33;;;;;;;7.27;6.60;;;20.40;65.30;;;;;;5007871;28;20465;-71